sensor_id;sensor_type;location;lat;lon;timestamp;pressure;altitude;pressure_sealevel;temperature;humidity
15884;BME280;8040;50.254;10.960;2024-02-23T00:00:26;95724.75;;;11.49;71.55
15884;BME280;8040;50.254;10.960;2024-02-23T00:02:52;95695.72;;;11.27;71.93
15884;BME280;8040;50.254;10.960;2024-02-23T00:05:19;95738.44;;;11.56;71.40
15884;BME280;8040;50.254;10.960;2024-02-23T00:07:45;95711.59;;;11.51;71.15
15884;BME280;8040;50.254;10.960;2024-02-23T00:10:10;95711.00;;;11.38;70.74
15884;BME280;8040;50.254;10.960;2024-02-23T00:12:36;95708.34;;;11.42;70.69
15884;BME280;8040;50.254;10.960;2024-02-23T00:15:01;95729.03;;;11.50;70.79
15884;BME280;8040;50.254;10.960;2024-02-23T00:17:27;95722.31;;;11.40;70.89
15884;BME280;8040;50.254;10.960;2024-02-23T00:19:52;95709.59;;;11.22;70.19
15884;BME280;8040;50.254;10.960;2024-02-23T00:22:18;95727.13;;;11.28;69.63
15884;BME280;8040;50.254;10.960;2024-02-23T00:24:43;95744.16;;;11.25;69.19
15884;BME280;8040;50.254;10.960;2024-02-23T00:27:18;95794.06;;;11.43;69.60
15884;BME280;8040;50.254;10.960;2024-02-23T00:29:43;95805.84;;;11.54;69.86
15884;BME280;8040;50.254;10.960;2024-02-23T00:32:09;95834.88;;;11.50;70.15
15884;BME280;8040;50.254;10.960;2024-02-23T00:34:35;95830.84;;;11.40;70.86
15884;BME280;8040;50.254;10.960;2024-02-23T00:37:01;95868.19;;;11.47;70.94
15884;BME280;8040;50.254;10.960;2024-02-23T00:39:27;95848.09;;;11.29;69.64
15884;BME280;8040;50.254;10.960;2024-02-23T00:41:52;95878.91;;;11.40;70.10
15884;BME280;8040;50.254;10.960;2024-02-23T00:44:18;95838.91;;;11.14;69.43
15884;BME280;8040;50.254;10.960;2024-02-23T00:46:43;95869.13;;;11.13;68.80
15884;BME280;8040;50.254;10.960;2024-02-23T00:49:09;95898.44;;;11.26;68.25
15884;BME280;8040;50.254;10.960;2024-02-23T00:51:34;95902.69;;;11.05;66.79
15884;BME280;8040;50.254;10.960;2024-02-23T00:53:59;95922.81;;;11.04;65.83
15884;BME280;8040;50.254;10.960;2024-02-23T00:56:25;95922.25;;;10.95;65.35
15884;BME280;8040;50.254;10.960;2024-02-23T00:58:51;95915.69;;;10.77;63.99
15884;BME280;8040;50.254;10.960;2024-02-23T01:01:16;95889.44;;;10.62;63.95
15884;BME280;8040;50.254;10.960;2024-02-23T01:03:42;95884.16;;;10.69;64.33
15884;BME280;8040;50.254;10.960;2024-02-23T01:06:07;95941.81;;;10.85;64.33
15884;BME280;8040;50.254;10.960;2024-02-23T01:08:32;95919.38;;;10.69;64.56
15884;BME280;8040;50.254;10.960;2024-02-23T01:10:58;95930.00;;;10.58;63.97
15884;BME280;8040;50.254;10.960;2024-02-23T01:13:23;95945.81;;;10.72;64.42
15884;BME280;8040;50.254;10.960;2024-02-23T01:15:48;95985.47;;;10.80;64.23
15884;BME280;8040;50.254;10.960;2024-02-23T01:18:14;95958.94;;;10.70;63.82
15884;BME280;8040;50.254;10.960;2024-02-23T01:20:39;95906.81;;;10.42;63.39
15884;BME280;8040;50.254;10.960;2024-02-23T01:23:05;95953.34;;;10.63;62.62
15884;BME280;8040;50.254;10.960;2024-02-23T01:25:30;95983.47;;;10.77;61.53
15884;BME280;8040;50.254;10.960;2024-02-23T01:27:55;95950.13;;;10.57;61.32
15884;BME280;8040;50.254;10.960;2024-02-23T01:30:21;95994.81;;;10.82;61.36
15884;BME280;8040;50.254;10.960;2024-02-23T01:32:46;95976.84;;;10.74;60.38
15884;BME280;8040;50.254;10.960;2024-02-23T01:35:12;95943.69;;;10.46;59.00
15884;BME280;8040;50.254;10.960;2024-02-23T01:37:37;96010.63;;;10.96;59.16
15884;BME280;8040;50.254;10.960;2024-02-23T01:40:03;95972.69;;;10.61;57.71
15884;BME280;8040;50.254;10.960;2024-02-23T01:42:29;96027.38;;;10.82;56.73
15884;BME280;8040;50.254;10.960;2024-02-23T01:44:55;95983.19;;;10.47;56.76
15884;BME280;8040;50.254;10.960;2024-02-23T01:47:24;96042.06;;;10.81;55.69
15884;BME280;8040;50.254;10.960;2024-02-23T01:49:50;96020.75;;;10.64;55.22
15884;BME280;8040;50.254;10.960;2024-02-23T01:52:17;95997.72;;;10.39;55.24
15884;BME280;8040;50.254;10.960;2024-02-23T01:54:43;95974.25;;;10.28;54.93
15884;BME280;8040;50.254;10.960;2024-02-23T01:57:09;96000.97;;;10.45;56.09
15884;BME280;8040;50.254;10.960;2024-02-23T01:59:36;96026.03;;;10.57;55.09
15884;BME280;8040;50.254;10.960;2024-02-23T02:02:03;95995.22;;;10.31;55.36
15884;BME280;8040;50.254;10.960;2024-02-23T02:04:29;96028.94;;;10.33;55.08
15884;BME280;8040;50.254;10.960;2024-02-23T02:06:55;96019.16;;;10.29;54.60
15884;BME280;8040;50.254;10.960;2024-02-23T02:09:21;96051.03;;;10.35;55.37
15884;BME280;8040;50.254;10.960;2024-02-23T02:11:48;96040.56;;;10.34;56.15
15884;BME280;8040;50.254;10.960;2024-02-23T02:14:14;96042.91;;;10.35;54.24
15884;BME280;8040;50.254;10.960;2024-02-23T02:16:45;96025.81;;;10.16;53.99
15884;BME280;8040;50.254;10.960;2024-02-23T02:19:11;95991.63;;;9.80;55.05
15884;BME280;8040;50.254;10.960;2024-02-23T02:21:37;96031.16;;;10.12;55.37
15884;BME280;8040;50.254;10.960;2024-02-23T02:24:03;96048.97;;;10.13;53.70
15884;BME280;8040;50.254;10.960;2024-02-23T02:26:32;96073.44;;;10.17;53.55
15884;BME280;8040;50.254;10.960;2024-02-23T02:28:57;96026.22;;;10.02;53.80
15884;BME280;8040;50.254;10.960;2024-02-23T02:31:23;96044.66;;;9.97;53.39
15884;BME280;8040;50.254;10.960;2024-02-23T02:33:48;96051.66;;;9.98;54.47
15884;BME280;8040;50.254;10.960;2024-02-23T02:36:13;96068.97;;;10.09;55.23
15884;BME280;8040;50.254;10.960;2024-02-23T02:38:42;96059.50;;;10.03;54.68
15884;BME280;8040;50.254;10.960;2024-02-23T02:41:08;96019.91;;;9.67;54.11
15884;BME280;8040;50.254;10.960;2024-02-23T02:43:34;96077.06;;;9.93;54.61
15884;BME280;8040;50.254;10.960;2024-02-23T02:45:59;96047.84;;;9.71;54.41
15884;BME280;8040;50.254;10.960;2024-02-23T02:48:24;96039.44;;;9.61;55.42
15884;BME280;8040;50.254;10.960;2024-02-23T02:50:50;96055.63;;;9.73;55.09
15884;BME280;8040;50.254;10.960;2024-02-23T02:53:16;96059.19;;;9.77;55.70
15884;BME280;8040;50.254;10.960;2024-02-23T02:55:42;96072.06;;;9.80;55.42
15884;BME280;8040;50.254;10.960;2024-02-23T02:58:09;96080.09;;;9.76;55.00
15884;BME280;8040;50.254;10.960;2024-02-23T03:00:37;96054.03;;;9.56;55.95
15884;BME280;8040;50.254;10.960;2024-02-23T03:03:02;96054.38;;;9.55;56.10
15884;BME280;8040;50.254;10.960;2024-02-23T03:05:28;96066.66;;;9.52;56.48
15884;BME280;8040;50.254;10.960;2024-02-23T03:07:53;96092.69;;;9.57;56.68
15884;BME280;8040;50.254;10.960;2024-02-23T03:10:19;96102.38;;;9.58;56.47
15884;BME280;8040;50.254;10.960;2024-02-23T03:12:44;96108.19;;;9.72;57.10
15884;BME280;8040;50.254;10.960;2024-02-23T03:15:09;96069.53;;;9.44;57.00
15884;BME280;8040;50.254;10.960;2024-02-23T03:17:35;96063.03;;;9.33;57.43
15884;BME280;8040;50.254;10.960;2024-02-23T03:20:01;96047.94;;;9.32;57.52
15884;BME280;8040;50.254;10.960;2024-02-23T03:22:31;96105.72;;;9.67;57.47
15884;BME280;8040;50.254;10.960;2024-02-23T03:24:57;96091.91;;;9.56;57.33
15884;BME280;8040;50.254;10.960;2024-02-23T03:27:28;96093.63;;;9.49;56.67
15884;BME280;8040;50.254;10.960;2024-02-23T03:29:53;96144.00;;;9.81;57.40
15884;BME280;8040;50.254;10.960;2024-02-23T03:32:19;96128.63;;;9.69;57.41
15884;BME280;8040;50.254;10.960;2024-02-23T03:34:44;96137.69;;;9.77;57.28
15884;BME280;8040;50.254;10.960;2024-02-23T03:37:10;96125.69;;;9.62;56.92
15884;BME280;8040;50.254;10.960;2024-02-23T03:39:35;96118.03;;;9.64;57.94
15884;BME280;8040;50.254;10.960;2024-02-23T03:42:03;96155.94;;;9.92;56.62
15884;BME280;8040;50.254;10.960;2024-02-23T03:44:29;96137.28;;;9.75;55.72
15884;BME280;8040;50.254;10.960;2024-02-23T03:46:54;96155.84;;;9.88;55.81
15884;BME280;8040;50.254;10.960;2024-02-23T03:49:20;96129.84;;;9.72;54.05
15884;BME280;8040;50.254;10.960;2024-02-23T03:51:48;96134.47;;;9.71;53.66
15884;BME280;8040;50.254;10.960;2024-02-23T03:54:13;96152.56;;;9.83;54.08
15884;BME280;8040;50.254;10.960;2024-02-23T03:56:42;96124.72;;;9.55;54.72
15884;BME280;8040;50.254;10.960;2024-02-23T03:59:08;96153.75;;;9.70;55.02
15884;BME280;8040;50.254;10.960;2024-02-23T04:01:37;96148.56;;;9.65;54.48
15884;BME280;8040;50.254;10.960;2024-02-23T04:04:03;96150.00;;;9.74;54.44
15884;BME280;8040;50.254;10.960;2024-02-23T04:06:29;96172.47;;;9.75;52.95
15884;BME280;8040;50.254;10.960;2024-02-23T04:08:54;96143.84;;;9.34;52.74
15884;BME280;8040;50.254;10.960;2024-02-23T04:11:20;96196.31;;;9.57;53.59
15884;BME280;8040;50.254;10.960;2024-02-23T04:13:45;96168.81;;;9.43;53.34
15884;BME280;8040;50.254;10.960;2024-02-23T04:16:10;96139.03;;;9.16;53.46
15884;BME280;8040;50.254;10.960;2024-02-23T04:18:36;96147.91;;;9.28;52.80
15884;BME280;8040;50.254;10.960;2024-02-23T04:21:01;96186.06;;;9.51;53.01
15884;BME280;8040;50.254;10.960;2024-02-23T04:23:27;96173.19;;;9.20;53.01
15884;BME280;8040;50.254;10.960;2024-02-23T04:25:52;96165.03;;;9.32;53.76
15884;BME280;8040;50.254;10.960;2024-02-23T04:28:17;96165.34;;;9.43;53.72
15884;BME280;8040;50.254;10.960;2024-02-23T04:30:43;96146.44;;;9.31;53.69
15884;BME280;8040;50.254;10.960;2024-02-23T04:33:08;96164.00;;;9.37;55.67
15884;BME280;8040;50.254;10.960;2024-02-23T04:35:34;96132.97;;;9.07;55.37
15884;BME280;8040;50.254;10.960;2024-02-23T04:37:59;96185.66;;;9.37;55.47
15884;BME280;8040;50.254;10.960;2024-02-23T04:40:24;96186.78;;;9.36;56.07
15884;BME280;8040;50.254;10.960;2024-02-23T04:42:50;96188.38;;;9.37;56.83
15884;BME280;8040;50.254;10.960;2024-02-23T04:45:15;96193.66;;;9.33;56.36
15884;BME280;8040;50.254;10.960;2024-02-23T04:47:41;96160.00;;;8.95;56.43
15884;BME280;8040;50.254;10.960;2024-02-23T04:50:06;96206.63;;;9.16;57.16
15884;BME280;8040;50.254;10.960;2024-02-23T04:52:32;96233.44;;;9.21;56.93
15884;BME280;8040;50.254;10.960;2024-02-23T04:54:57;96205.28;;;9.10;57.90
15884;BME280;8040;50.254;10.960;2024-02-23T04:57:23;96191.78;;;8.98;57.89
15884;BME280;8040;50.254;10.960;2024-02-23T04:59:48;96204.06;;;8.95;57.74
15884;BME280;8040;50.254;10.960;2024-02-23T05:02:14;96236.84;;;9.18;57.49
15884;BME280;8040;50.254;10.960;2024-02-23T05:04:39;96214.53;;;8.97;56.91
15884;BME280;8040;50.254;10.960;2024-02-23T05:07:05;96206.09;;;8.86;57.04
15884;BME280;8040;50.254;10.960;2024-02-23T05:09:30;96213.19;;;8.91;57.72
15884;BME280;8040;50.254;10.960;2024-02-23T05:11:57;96209.13;;;8.85;56.89
15884;BME280;8040;50.254;10.960;2024-02-23T05:14:22;96220.63;;;8.82;58.11
15884;BME280;8040;50.254;10.960;2024-02-23T05:16:47;96186.38;;;8.50;57.75
15884;BME280;8040;50.254;10.960;2024-02-23T05:19:13;96239.31;;;8.75;57.22
15884;BME280;8040;50.254;10.960;2024-02-23T05:21:38;96268.59;;;8.97;57.33
15884;BME280;8040;50.254;10.960;2024-02-23T05:24:04;96267.72;;;8.93;58.05
15884;BME280;8040;50.254;10.960;2024-02-23T05:26:31;96235.00;;;8.50;57.67
15884;BME280;8040;50.254;10.960;2024-02-23T05:28:56;96292.91;;;8.85;58.16
15884;BME280;8040;50.254;10.960;2024-02-23T05:31:44;96270.28;;;8.77;57.99
15884;BME280;8040;50.254;10.960;2024-02-23T05:34:09;96250.53;;;8.65;57.98
15884;BME280;8040;50.254;10.960;2024-02-23T05:36:35;96247.38;;;8.51;58.27
15884;BME280;8040;50.254;10.960;2024-02-23T05:39:00;96268.09;;;8.59;57.99
15884;BME280;8040;50.254;10.960;2024-02-23T05:41:25;96283.88;;;8.57;57.85
15884;BME280;8040;50.254;10.960;2024-02-23T05:43:51;96270.75;;;8.47;58.05
15884;BME280;8040;50.254;10.960;2024-02-23T05:46:16;96296.88;;;8.55;58.55
15884;BME280;8040;50.254;10.960;2024-02-23T05:48:43;96279.53;;;8.44;59.22
15884;BME280;8040;50.254;10.960;2024-02-23T05:51:08;96286.44;;;8.53;59.05
15884;BME280;8040;50.254;10.960;2024-02-23T05:53:37;96279.53;;;8.44;59.33
15884;BME280;8040;50.254;10.960;2024-02-23T05:56:02;96279.09;;;8.54;58.71
15884;BME280;8040;50.254;10.960;2024-02-23T05:58:28;96261.28;;;8.41;59.22
15884;BME280;8040;50.254;10.960;2024-02-23T06:00:54;96270.41;;;8.36;59.31
15884;BME280;8040;50.254;10.960;2024-02-23T06:03:19;96285.72;;;8.44;58.47
15884;BME280;8040;50.254;10.960;2024-02-23T06:05:45;96294.94;;;8.43;58.26
15884;BME280;8040;50.254;10.960;2024-02-23T06:08:11;96237.16;;;8.03;57.71
15884;BME280;8040;50.254;10.960;2024-02-23T06:10:36;96274.34;;;8.39;57.79
15884;BME280;8040;50.254;10.960;2024-02-23T06:13:03;96247.69;;;8.17;57.13
15884;BME280;8040;50.254;10.960;2024-02-23T06:15:28;96256.84;;;8.24;56.01
15884;BME280;8040;50.254;10.960;2024-02-23T06:17:54;96300.94;;;8.49;55.80
15884;BME280;8040;50.254;10.960;2024-02-23T06:20:19;96240.25;;;8.14;55.68
15884;BME280;8040;50.254;10.960;2024-02-23T06:22:45;96285.84;;;8.48;55.06
15884;BME280;8040;50.254;10.960;2024-02-23T06:25:10;96278.38;;;8.33;54.74
15884;BME280;8040;50.254;10.960;2024-02-23T06:27:37;96299.63;;;8.34;54.54
15884;BME280;8040;50.254;10.960;2024-02-23T06:30:03;96299.78;;;8.17;54.11
15884;BME280;8040;50.254;10.960;2024-02-23T06:32:29;96288.38;;;8.12;53.71
15884;BME280;8040;50.254;10.960;2024-02-23T06:34:54;96277.06;;;8.18;53.87
15884;BME280;8040;50.254;10.960;2024-02-23T06:37:20;96295.91;;;8.27;52.78
15884;BME280;8040;50.254;10.960;2024-02-23T06:39:45;96320.38;;;8.42;52.81
15884;BME280;8040;50.254;10.960;2024-02-23T06:42:15;96332.31;;;8.41;53.12
15884;BME280;8040;50.254;10.960;2024-02-23T06:44:40;96300.31;;;8.11;52.45
15884;BME280;8040;50.254;10.960;2024-02-23T06:47:06;96292.19;;;8.11;53.11
15884;BME280;8040;50.254;10.960;2024-02-23T06:49:32;96291.31;;;8.19;52.84
15884;BME280;8040;50.254;10.960;2024-02-23T06:51:57;96329.75;;;8.45;52.37
15884;BME280;8040;50.254;10.960;2024-02-23T06:54:23;96330.16;;;8.35;51.64
15884;BME280;8040;50.254;10.960;2024-02-23T06:56:48;96309.97;;;8.12;51.59
15884;BME280;8040;50.254;10.960;2024-02-23T06:59:13;96309.34;;;7.94;53.38
15884;BME280;8040;50.254;10.960;2024-02-23T07:01:49;96353.53;;;8.10;52.87
15884;BME280;8040;50.254;10.960;2024-02-23T07:04:15;96371.03;;;8.04;52.94
15884;BME280;8040;50.254;10.960;2024-02-23T07:06:40;96403.81;;;8.23;53.07
15884;BME280;8040;50.254;10.960;2024-02-23T07:09:05;96349.81;;;7.94;52.62
15884;BME280;8040;50.254;10.960;2024-02-23T07:11:31;96369.84;;;7.93;53.61
15884;BME280;8040;50.254;10.960;2024-02-23T07:13:56;96354.81;;;7.84;54.41
15884;BME280;8040;50.254;10.960;2024-02-23T07:16:23;96414.94;;;8.22;54.49
15884;BME280;8040;50.254;10.960;2024-02-23T07:18:49;96356.25;;;7.81;54.05
15884;BME280;8040;50.254;10.960;2024-02-23T07:21:22;96333.38;;;7.58;54.78
15884;BME280;8040;50.254;10.960;2024-02-23T07:23:48;96380.06;;;7.79;54.07
15884;BME280;8040;50.254;10.960;2024-02-23T07:26:16;96414.06;;;8.01;54.56
15884;BME280;8040;50.254;10.960;2024-02-23T07:28:44;96349.22;;;7.68;54.27
15884;BME280;8040;50.254;10.960;2024-02-23T07:31:14;96381.09;;;7.95;54.54
15884;BME280;8040;50.254;10.960;2024-02-23T07:33:57;96392.47;;;8.01;55.12
15884;BME280;8040;50.254;10.960;2024-02-23T07:36:24;96389.28;;;8.07;54.57
15884;BME280;8040;50.254;10.960;2024-02-23T07:38:53;96365.81;;;7.99;55.76
15884;BME280;8040;50.254;10.960;2024-02-23T07:41:20;96374.31;;;8.10;56.25
15884;BME280;8040;50.254;10.960;2024-02-23T07:43:45;96348.97;;;8.02;56.34
15884;BME280;8040;50.254;10.960;2024-02-23T07:46:18;96356.88;;;8.07;55.90
15884;BME280;8040;50.254;10.960;2024-02-23T07:48:57;96350.22;;;8.05;56.21
15884;BME280;8040;50.254;10.960;2024-02-23T07:51:25;96343.75;;;7.97;56.18
15884;BME280;8040;50.254;10.960;2024-02-23T07:53:57;96367.91;;;8.23;56.35
15884;BME280;8040;50.254;10.960;2024-02-23T07:56:24;96351.78;;;8.06;57.35
15884;BME280;8040;50.254;10.960;2024-02-23T07:58:52;96368.06;;;8.18;56.85
15884;BME280;8040;50.254;10.960;2024-02-23T08:02:01;96346.53;;;8.09;57.34
15884;BME280;8040;50.254;10.960;2024-02-23T08:04:29;96411.19;;;8.55;56.83
15884;BME280;8040;50.254;10.960;2024-02-23T08:07:02;96388.06;;;8.46;56.22
15884;BME280;8040;50.254;10.960;2024-02-23T08:09:28;96365.72;;;8.37;56.59
15884;BME280;8040;50.254;10.960;2024-02-23T08:11:54;96368.88;;;8.39;57.08
15884;BME280;8040;50.254;10.960;2024-02-23T08:14:19;96430.84;;;8.76;56.14
15884;BME280;8040;50.254;10.960;2024-02-23T08:16:48;96390.63;;;8.42;56.56
15884;BME280;8040;50.254;10.960;2024-02-23T08:19:18;96369.47;;;8.24;56.08
15884;BME280;8040;50.254;10.960;2024-02-23T08:21:46;96374.22;;;8.27;57.30
15884;BME280;8040;50.254;10.960;2024-02-23T08:24:23;96433.84;;;8.63;57.15
15884;BME280;8040;50.254;10.960;2024-02-23T08:26:51;96407.53;;;8.51;57.19
15884;BME280;8040;50.254;10.960;2024-02-23T08:29:32;96378.13;;;8.38;57.41
15884;BME280;8040;50.254;10.960;2024-02-23T08:31:59;96366.06;;;8.35;57.78
15884;BME280;8040;50.254;10.960;2024-02-23T08:34:27;96463.63;;;8.95;57.38
15884;BME280;8040;50.254;10.960;2024-02-23T08:36:58;96371.97;;;8.49;57.70
15884;BME280;8040;50.254;10.960;2024-02-23T08:39:24;96391.47;;;8.55;57.63
15884;BME280;8040;50.254;10.960;2024-02-23T08:41:52;96395.34;;;8.66;57.55
15884;BME280;8040;50.254;10.960;2024-02-23T08:44:27;96416.59;;;8.88;57.09
15884;BME280;8040;50.254;10.960;2024-02-23T08:46:56;96452.75;;;9.16;57.34
15884;BME280;8040;50.254;10.960;2024-02-23T08:49:29;96374.09;;;8.76;56.84
15884;BME280;8040;50.254;10.960;2024-02-23T08:51:56;96404.47;;;8.94;57.15
15884;BME280;8040;50.254;10.960;2024-02-23T08:54:29;96386.16;;;8.79;56.92
15884;BME280;8040;50.254;10.960;2024-02-23T08:56:54;96462.47;;;9.29;56.70
15884;BME280;8040;50.254;10.960;2024-02-23T08:59:20;96432.81;;;9.20;55.89
15884;BME280;8040;50.254;10.960;2024-02-23T09:01:48;96444.91;;;9.35;56.56
15884;BME280;8040;50.254;10.960;2024-02-23T09:04:19;96392.44;;;9.03;56.29
15884;BME280;8040;50.254;10.960;2024-02-23T09:06:44;96413.19;;;9.11;56.07
15884;BME280;8040;50.254;10.960;2024-02-23T09:09:11;96429.00;;;9.21;55.48
15884;BME280;8040;50.254;10.960;2024-02-23T09:14:46;96377.31;;;8.58;55.01
15884;BME280;8040;50.254;10.960;2024-02-23T09:17:16;96391.50;;;8.67;55.41
15884;BME280;8040;50.254;10.960;2024-02-23T09:19:44;96426.53;;;8.96;55.37
15884;BME280;8040;50.254;10.960;2024-02-23T09:22:09;96384.09;;;8.64;56.64
15884;BME280;8040;50.254;10.960;2024-02-23T09:24:35;96462.47;;;9.17;56.53
15884;BME280;8040;50.254;10.960;2024-02-23T09:30:42;96456.03;;;9.21;56.14
15884;BME280;8040;50.254;10.960;2024-02-23T09:33:13;96349.47;;;8.57;55.74
15884;BME280;8040;50.254;10.960;2024-02-23T09:35:40;96411.19;;;8.88;56.66
15884;BME280;8040;50.254;10.960;2024-02-23T09:38:22;96364.84;;;8.65;56.50
15884;BME280;8040;50.254;10.960;2024-02-23T09:40:51;96405.47;;;9.01;56.98
15884;BME280;8040;50.254;10.960;2024-02-23T09:43:21;96435.97;;;9.22;56.75
15884;BME280;8040;50.254;10.960;2024-02-23T09:45:50;96379.66;;;8.92;56.46
15884;BME280;8040;50.254;10.960;2024-02-23T09:49:04;96454.66;;;9.48;56.05
15884;BME280;8040;50.254;10.960;2024-02-23T09:52:03;96437.50;;;9.44;56.37
15884;BME280;8040;50.254;10.960;2024-02-23T09:54:39;96383.84;;;9.01;56.11
15884;BME280;8040;50.254;10.960;2024-02-23T09:57:08;96367.75;;;8.93;57.04
15884;BME280;8040;50.254;10.960;2024-02-23T09:59:37;96373.69;;;8.86;57.67
15884;BME280;8040;50.254;10.960;2024-02-23T10:02:10;96441.31;;;9.31;56.90
15884;BME280;8040;50.254;10.960;2024-02-23T10:04:52;96367.91;;;8.76;57.75
15884;BME280;8040;50.254;10.960;2024-02-23T10:07:38;96452.25;;;9.34;57.19
15884;BME280;8040;50.254;10.960;2024-02-23T10:10:09;96415.44;;;9.09;57.78
15884;BME280;8040;50.254;10.960;2024-02-23T10:12:40;96468.59;;;9.38;57.39
15884;BME280;8040;50.254;10.960;2024-02-23T10:15:09;96431.06;;;9.04;57.73
15884;BME280;8040;50.254;10.960;2024-02-23T10:17:37;96433.31;;;9.02;57.06
15884;BME280;8040;50.254;10.960;2024-02-23T10:20:13;96478.69;;;9.29;57.10
15884;BME280;8040;50.254;10.960;2024-02-23T10:22:38;96460.69;;;9.00;56.64
15884;BME280;8040;50.254;10.960;2024-02-23T10:25:04;96441.59;;;8.85;55.90
15884;BME280;8040;50.254;10.960;2024-02-23T10:27:31;96455.63;;;8.99;56.48
15884;BME280;8040;50.254;10.960;2024-02-23T10:29:59;96494.28;;;9.32;57.56
15884;BME280;8040;50.254;10.960;2024-02-23T10:32:29;96485.47;;;9.23;57.96
15884;BME280;8040;50.254;10.960;2024-02-23T10:34:55;96500.06;;;9.42;56.64
15884;BME280;8040;50.254;10.960;2024-02-23T10:37:22;96489.69;;;9.32;56.35
15884;BME280;8040;50.254;10.960;2024-02-23T10:39:50;96477.34;;;9.23;56.17
15884;BME280;8040;50.254;10.960;2024-02-23T10:42:23;96453.53;;;9.16;56.25
15884;BME280;8040;50.254;10.960;2024-02-23T10:44:50;96514.34;;;9.75;57.09
15884;BME280;8040;50.254;10.960;2024-02-23T10:47:17;96467.41;;;9.59;56.32
15884;BME280;8040;50.254;10.960;2024-02-23T10:49:53;96515.66;;;10.14;55.98
15884;BME280;8040;50.254;10.960;2024-02-23T10:52:23;96529.66;;;10.16;54.41
15884;BME280;8040;50.254;10.960;2024-02-23T10:54:50;96441.13;;;9.60;53.24
15884;BME280;8040;50.254;10.960;2024-02-23T10:57:17;96511.09;;;9.94;52.08
15884;BME280;8040;50.254;10.960;2024-02-23T10:59:46;96447.41;;;9.40;51.10
15884;BME280;8040;50.254;10.960;2024-02-23T11:02:17;96486.88;;;9.53;51.28
15884;BME280;8040;50.254;10.960;2024-02-23T11:04:48;96493.09;;;9.53;50.13
15884;BME280;8040;50.254;10.960;2024-02-23T11:07:21;96452.81;;;9.40;50.82
15884;BME280;8040;50.254;10.960;2024-02-23T11:16:54;96476.09;;;9.65;48.16
15884;BME280;8040;50.254;10.960;2024-02-23T11:19:35;96480.59;;;9.61;48.33
15884;BME280;8040;50.254;10.960;2024-02-23T11:22:13;96504.75;;;9.66;48.87
15884;BME280;8040;50.254;10.960;2024-02-23T11:27:49;96511.19;;;9.73;48.77
15884;BME280;8040;50.254;10.960;2024-02-23T11:30:19;96521.34;;;9.76;49.94
15884;BME280;8040;50.254;10.960;2024-02-23T11:32:46;96477.88;;;9.49;50.46
15884;BME280;8040;50.254;10.960;2024-02-23T11:35:14;96474.25;;;9.45;50.15
15884;BME280;8040;50.254;10.960;2024-02-23T11:37:52;96450.31;;;9.23;50.43
15884;BME280;8040;50.254;10.960;2024-02-23T11:40:25;96499.19;;;9.62;50.78
15884;BME280;8040;50.254;10.960;2024-02-23T11:42:54;96487.13;;;9.48;49.51
15884;BME280;8040;50.254;10.960;2024-02-23T11:45:21;96518.66;;;9.76;49.28
15884;BME280;8040;50.254;10.960;2024-02-23T11:47:48;96521.47;;;9.80;48.98
15884;BME280;8040;50.254;10.960;2024-02-23T11:50:31;96464.31;;;9.37;49.35
15884;BME280;8040;50.254;10.960;2024-02-23T11:52:57;96484.66;;;9.55;50.20
15884;BME280;8040;50.254;10.960;2024-02-23T11:55:26;96467.31;;;9.68;49.97
15884;BME280;8040;50.254;10.960;2024-02-23T11:57:53;96490.34;;;9.86;49.21
15884;BME280;8040;50.254;10.960;2024-02-23T12:00:18;96458.19;;;9.84;49.16
15884;BME280;8040;50.254;10.960;2024-02-23T12:03:02;96451.31;;;9.99;48.58
15884;BME280;8040;50.254;10.960;2024-02-23T12:05:29;96456.63;;;10.07;48.76
15884;BME280;8040;50.254;10.960;2024-02-23T12:07:59;96509.78;;;10.48;47.76
15884;BME280;8040;50.254;10.960;2024-02-23T12:10:28;96430.88;;;9.77;47.33
15884;BME280;8040;50.254;10.960;2024-02-23T12:13:00;96494.19;;;9.97;46.80
15884;BME280;8040;50.254;10.960;2024-02-23T12:15:29;96447.44;;;9.64;47.69
15884;BME280;8040;50.254;10.960;2024-02-23T12:17:58;96519.00;;;9.99;48.16
15884;BME280;8040;50.254;10.960;2024-02-23T12:20:24;96519.94;;;10.03;48.50
15884;BME280;8040;50.254;10.960;2024-02-23T12:23:02;96462.81;;;9.72;48.05
15884;BME280;8040;50.254;10.960;2024-02-23T12:25:30;96512.03;;;9.98;47.17
15884;BME280;8040;50.254;10.960;2024-02-23T12:28:06;96445.97;;;9.54;47.72
15884;BME280;8040;50.254;10.960;2024-02-23T12:30:31;96462.91;;;9.63;47.52
15884;BME280;8040;50.254;10.960;2024-02-23T12:33:05;96437.28;;;9.49;48.14
15884;BME280;8040;50.254;10.960;2024-02-23T12:35:34;96485.69;;;9.74;47.56
15884;BME280;8040;50.254;10.960;2024-02-23T12:38:01;96422.13;;;9.24;46.89
15884;BME280;8040;50.254;10.960;2024-02-23T12:40:27;96491.91;;;9.75;48.18
15884;BME280;8040;50.254;10.960;2024-02-23T12:42:55;96492.34;;;9.77;47.45
15884;BME280;8040;50.254;10.960;2024-02-23T12:45:21;96506.91;;;9.84;47.58
15884;BME280;8040;50.254;10.960;2024-02-23T12:47:48;96430.06;;;9.53;46.94
15884;BME280;8040;50.254;10.960;2024-02-23T12:50:21;96482.22;;;9.98;48.35
15884;BME280;8040;50.254;10.960;2024-02-23T12:52:47;96445.66;;;9.80;47.92
15884;BME280;8040;50.254;10.960;2024-02-23T12:55:12;96434.38;;;9.66;48.09
15884;BME280;8040;50.254;10.960;2024-02-23T12:57:41;96465.75;;;10.03;48.14
15884;BME280;8040;50.254;10.960;2024-02-23T13:00:09;96459.34;;;10.07;47.62
15884;BME280;8040;50.254;10.960;2024-02-23T13:02:35;96429.84;;;9.94;48.20
15884;BME280;8040;50.254;10.960;2024-02-23T13:05:08;96400.75;;;9.79;48.05
15884;BME280;8040;50.254;10.960;2024-02-23T13:07:38;96495.66;;;10.54;47.92
15884;BME280;8040;50.254;10.960;2024-02-23T13:10:06;96454.94;;;10.27;46.67
15884;BME280;8040;50.254;10.960;2024-02-23T13:12:32;96420.84;;;10.14;46.20
15884;BME280;8040;50.254;10.960;2024-02-23T13:15:00;96471.59;;;10.53;46.39
15884;BME280;8040;50.254;10.960;2024-02-23T13:17:25;96451.66;;;10.21;45.92
15884;BME280;8040;50.254;10.960;2024-02-23T13:19:51;96477.28;;;10.36;46.26
15884;BME280;8040;50.254;10.960;2024-02-23T13:22:20;96443.41;;;10.18;46.35
15884;BME280;8040;50.254;10.960;2024-02-23T13:24:46;96427.28;;;10.21;48.09
15884;BME280;8040;50.254;10.960;2024-02-23T13:27:11;96400.84;;;10.30;47.70